Time;durP1;ratioP1;P1;durP2;ratioP2;P2;SDS_P1;SDS_P2;PMS_P1;PMS_P2;Temp;Humidity;BMP_temperature;BMP_pressure;BME280_temperature;BME280_humidity;BME280_pressure;Samples;Min_cycle;Max_cycle;Signal;HPM_P1;HPM_P2
2022/09/12 00:00:47;;;;;;;15.25;9.20;;;13.00;99.90;;;;;;5005404;28;20366;-88
2022/09/12 00:03:12;;;;;;;15.30;7.80;;;12.90;99.90;;;;;;4984708;28;20474;-87
2022/09/12 00:05:46;;;;;;;10.98;7.72;;;12.90;99.90;;;;;;4979737;28;20023;-88
2022/09/12 00:08:13;;;;;;;12.20;7.00;;;12.90;99.90;;;;;;4979606;28;20022;-88
2022/09/12 00:10:40;;;;;;;16.02;8.20;;;12.90;99.90;;;;;;4996163;28;20030;-87
2022/09/12 00:13:07;;;;;;;10.63;7.18;;;12.90;99.90;;;;;;4997085;28;20049;-88
2022/09/12 00:15:44;;;;;;;19.23;8.15;;;12.90;99.90;;;;;;4996538;28;20053;-88
2022/09/12 00:18:14;;;;;;;14.63;8.82;;;12.90;99.90;;;;;;4998440;28;20044;-86
2022/09/12 00:20:45;;;;;;;22.13;9.70;;;12.80;99.90;;;;;;5000484;28;20038;-87
2022/09/12 00:23:12;;;;;;;13.68;8.55;;;12.80;99.90;;;;;;5003098;28;20119;-87
2022/09/12 00:25:45;;;;;;;15.07;9.18;;;12.80;99.90;;;;;;5001042;28;20054;-88
2022/09/12 00:28:13;;;;;;;15.05;9.55;;;12.80;99.90;;;;;;4996570;28;20446;-88
2022/09/12 00:30:43;;;;;;;19.27;9.98;;;12.80;99.90;;;;;;5000416;28;20014;-88
2022/09/12 00:33:10;;;;;;;17.15;9.73;;;12.80;99.90;;;;;;4997302;28;20077;-86
2022/09/12 00:36:07;;;;;;;16.38;9.40;;;12.80;99.90;;;;;;4998452;28;20086;-86
2022/09/12 00:38:34;;;;;;;15.00;9.05;;;12.70;99.90;;;;;;4999271;28;20022;-85
2022/09/12 00:41:00;;;;;;;17.75;8.63;;;12.70;99.90;;;;;;5001845;28;20066;-88
2022/09/12 00:43:39;;;;;;;14.27;9.35;;;12.70;99.90;;;;;;5012264;28;20022;-87
2022/09/12 00:46:34;;;;;;;14.85;9.82;;;12.70;99.90;;;;;;4995193;28;20026;-87
2022/09/12 00:49:08;;;;;;;15.77;10.07;;;12.70;99.90;;;;;;4994941;28;20054;-86
2022/09/12 00:51:36;;;;;;;19.63;8.90;;;12.70;99.90;;;;;;4979148;28;20030;-86
2022/09/12 00:54:11;;;;;;;12.48;9.35;;;12.70;99.90;;;;;;4997354;28;20026;-87
2022/09/12 00:56:39;;;;;;;13.35;9.07;;;12.70;99.90;;;;;;5016884;28;20014;-84
2022/09/12 00:59:13;;;;;;;12.55;8.23;;;12.70;99.90;;;;;;5015995;28;20018;-86
2022/09/12 01:01:44;;;;;;;11.98;7.93;;;12.70;99.90;;;;;;5015172;28;20065;-87
2022/09/12 01:04:11;;;;;;;13.25;8.77;;;12.80;99.90;;;;;;5007956;28;20113;-86
2022/09/12 01:06:42;;;;;;;;;;;12.70;99.90;;;;;;4998943;28;20030;-86
2022/09/12 01:09:14;;;;;;;11.95;8.40;;;12.70;99.90;;;;;;4997104;28;20000;-86
2022/09/12 01:11:41;;;;;;;14.23;8.93;;;12.80;99.90;;;;;;4999593;28;20022;-88
2022/09/12 01:14:08;;;;;;;15.50;9.25;;;12.80;99.90;;;;;;4999654;28;20050;-88
2022/09/12 01:16:37;;;;;;;14.63;9.53;;;12.80;99.90;;;;;;4997392;28;20050;-86
2022/09/12 01:19:19;;;;;;;15.65;8.93;;;12.80;99.90;;;;;;4996643;28;20308;-86
2022/09/12 01:21:53;;;;;;;13.07;9.52;;;12.80;99.90;;;;;;4997815;28;20044;-87
2022/09/12 01:24:25;;;;;;;16.30;9.50;;;12.90;99.90;;;;;;5000048;28;20027;-88
2022/09/12 01:27:25;;;;;;;13.60;9.00;;;12.90;99.90;;;;;;4979192;28;20027;-88
2022/09/12 01:30:38;;;;;;;14.40;9.77;;;12.90;99.90;;;;;;4995524;28;20018;-87
2022/09/12 01:33:09;;;;;;;16.08;9.63;;;12.90;99.90;;;;;;4994568;28;20029;-86
2022/09/12 01:35:59;;;;;;;14.80;9.90;;;12.90;99.90;;;;;;4977510;28;20022;-87
2022/09/12 01:38:38;;;;;;;14.65;9.68;;;12.90;99.90;;;;;;4977722;28;20023;-88
2022/09/12 01:41:49;;;;;;;14.50;9.13;;;13.00;99.90;;;;;;4994068;28;20124;-88
2022/09/12 01:44:30;;;;;;;19.02;9.88;;;13.00;99.90;;;;;;4993523;28;20398;-88
2022/09/12 01:47:08;;;;;;;15.35;10.48;;;13.00;99.90;;;;;;4993340;28;20178;-86
2022/09/12 01:50:00;;;;;;;16.40;9.15;;;13.00;99.90;;;;;;4994665;28;20489;-87
2022/09/12 01:52:53;;;;;;;16.45;9.57;;;12.90;99.90;;;;;;4994430;28;20033;-87
2022/09/12 01:55:32;;;;;;;16.25;10.77;;;12.90;99.90;;;;;;4997311;28;20033;-87
2022/09/12 01:58:06;;;;;;;14.02;9.45;;;12.90;99.90;;;;;;4997596;28;20034;-87
2022/09/12 02:00:36;;;;;;;12.82;8.63;;;12.90;99.90;;;;;;4998140;28;20080;-86
2022/09/12 02:03:16;;;;;;;12.93;10.30;;;12.80;99.90;;;;;;4997246;28;20164;-85
2022/09/12 02:05:56;;;;;;;17.33;10.68;;;12.80;99.90;;;;;;4998248;28;20026;-86
2022/09/12 02:08:30;;;;;;;17.98;9.07;;;12.70;99.90;;;;;;4998180;28;20026;-87
2022/09/12 02:11:07;;;;;;;13.57;9.88;;;12.70;99.90;;;;;;5038248;23;20119;-54
2022/09/12 02:13:42;;;;;;;16.98;9.82;;;12.70;99.90;;;;;;5032002;28;20026;-54
2022/09/12 02:16:25;;;;;;;15.65;11.25;;;12.70;99.90;;;;;;5032511;28;20133;-53
2022/09/12 02:18:58;;;;;;;18.48;11.07;;;12.70;99.90;;;;;;5032177;28;20476;-53
2022/09/12 02:21:26;;;;;;;16.83;10.48;;;12.70;99.90;;;;;;5032666;28;20037;-53
2022/09/12 02:24:01;;;;;;;13.95;10.20;;;12.70;99.90;;;;;;5032165;28;20028;-53
2022/09/12 02:26:36;;;;;;;13.90;10.50;;;12.70;99.90;;;;;;5032429;28;20036;-54
2022/09/12 02:29:03;;;;;;;17.40;11.23;;;12.70;99.90;;;;;;5032029;28;20029;-53
2022/09/12 02:31:38;;;;;;;15.10;10.02;;;12.70;99.90;;;;;;5032533;28;20488;-54
2022/09/12 02:34:27;;;;;;;17.83;10.65;;;12.70;99.90;;;;;;5032179;28;20029;-54
2022/09/12 02:37:23;;;;;;;17.83;11.65;;;12.70;99.90;;;;;;5032256;28;20029;-53
2022/09/12 02:39:48;;;;;;;18.25;10.52;;;12.70;99.90;;;;;;5031652;28;20065;-54
2022/09/12 02:42:14;;;;;;;14.43;10.13;;;12.60;99.90;;;;;;5014461;28;20049;-53
2022/09/12 02:44:40;;;;;;;18.40;10.95;;;12.60;99.90;;;;;;5032065;28;20072;-53
2022/09/12 02:47:15;;;;;;;15.65;11.07;;;12.60;99.90;;;;;;5032059;28;20037;-54
2022/09/12 02:49:41;;;;;;;14.15;10.88;;;12.50;99.90;;;;;;5031757;28;20040;-53
2022/09/12 02:52:07;;;;;;;16.98;10.45;;;12.50;99.90;;;;;;5032213;28;20033;-53
2022/09/12 02:54:33;;;;;;;18.38;11.88;;;12.50;99.90;;;;;;5032024;28;20423;-53
2022/09/12 02:56:58;;;;;;;17.85;10.25;;;12.50;99.90;;;;;;5031944;28;20034;-54
2022/09/12 02:59:25;;;;;;;17.90;10.75;;;12.50;99.90;;;;;;5031246;28;20096;-54
2022/09/12 03:01:53;;;;;;;19.50;10.97;;;12.50;99.90;;;;;;5032094;28;20123;-54
2022/09/12 03:04:51;;;;;;;18.17;12.35;;;12.60;99.90;;;;;;5031510;28;20088;-54
2022/09/12 03:07:36;;;;;;;25.58;10.75;;;12.60;99.90;;;;;;5031233;28;20472;-53
2022/09/12 03:10:23;;;;;;;14.98;10.27;;;12.60;99.90;;;;;;5031757;28;20091;-53
2022/09/12 03:13:16;;;;;;;15.95;10.70;;;12.60;99.90;;;;;;5013781;28;20061;-54
2022/09/12 03:16:01;;;;;;;14.30;9.13;;;12.60;99.90;;;;;;4994342;28;20034;-54
2022/09/12 03:18:59;;;;;;;12.07;8.52;;;12.60;99.90;;;;;;5011760;28;20030;-54
2022/09/12 03:21:34;;;;;;;14.40;8.65;;;12.60;99.90;;;;;;5007313;28;20038;-54
2022/09/12 03:24:23;;;;;;;14.27;8.85;;;12.70;99.90;;;;;;5011808;28;20018;-54
2022/09/12 03:27:04;;;;;;;13.80;9.35;;;12.70;99.90;;;;;;5011836;28;20030;-54
2022/09/12 03:29:30;;;;;;;14.18;9.13;;;12.60;99.90;;;;;;5011415;28;20109;-53
2022/09/12 03:31:57;;;;;;;15.43;8.70;;;12.60;99.90;;;;;;5011388;28;20065;-53
2022/09/12 03:34:25;;;;;;;16.90;8.93;;;12.60;99.90;;;;;;5011523;28;20029;-53
2022/09/12 03:36:54;;;;;;;13.57;9.25;;;12.50;99.90;;;;;;5010194;28;20386;-51
2022/09/12 03:39:20;;;;;;;13.13;9.13;;;12.50;99.90;;;;;;4993683;28;20109;-54
2022/09/12 03:41:46;;;;;;;13.23;8.95;;;12.50;99.90;;;;;;5010035;28;20034;-53
2022/09/12 03:44:11;;;;;;;14.15;8.50;;;12.50;99.90;;;;;;5011653;28;20041;-54
2022/09/12 03:46:37;;;;;;;12.45;9.07;;;12.50;99.90;;;;;;5011701;28;20418;-54
2022/09/12 03:49:03;;;;;;;13.43;8.52;;;12.60;99.90;;;;;;5011237;28;20758;-54
2022/09/12 03:51:29;;;;;;;12.32;8.05;;;12.60;99.90;;;;;;5011308;28;20030;-53
2022/09/12 03:53:55;;;;;;;13.98;9.35;;;12.50;99.90;;;;;;5011338;28;20084;-53
2022/09/12 03:56:21;;;;;;;13.65;8.63;;;12.50;99.90;;;;;;5009715;28;20030;-54
2022/09/12 03:58:47;;;;;;;14.68;9.18;;;12.50;99.90;;;;;;5010928;28;20025;-53
2022/09/12 04:01:15;;;;;;;16.33;9.48;;;12.50;99.90;;;;;;5011171;28;20635;-54
2022/09/12 04:03:43;;;;;;;16.77;9.30;;;12.50;99.90;;;;;;5011063;28;20038;-53
2022/09/12 04:06:09;;;;;;;;;;;12.50;99.90;;;;;;5011630;28;20029;-54
2022/09/12 04:08:36;;;;;;;18.08;8.15;;;12.40;99.90;;;;;;5010714;28;20371;-54
2022/09/12 04:11:07;;;;;;;13.88;8.70;;;12.40;99.90;;;;;;5013708;28;20404;-53
2022/09/12 04:13:35;;;;;;;16.17;8.73;;;12.50;99.90;;;;;;5030481;28;20480;-54
2022/09/12 04:16:01;;;;;;;;;;;12.40;99.90;;;;;;5030425;28;20026;-54
2022/09/12 04:18:26;;;;;;;12.07;8.02;;;12.40;99.90;;;;;;5048315;28;19912;-54
2022/09/12 04:20:52;;;;;;;21.83;9.45;;;12.40;99.90;;;;;;5049975;28;20044;-54
2022/09/12 04:23:18;;;;;;;13.63;9.88;;;12.30;99.90;;;;;;5050244;28;20042;-53
2022/09/12 04:25:44;;;;;;;16.58;10.77;;;12.30;99.90;;;;;;5035427;28;20026;-54
2022/09/12 04:28:09;;;;;;;16.98;12.57;;;12.30;99.90;;;;;;5010602;28;20022;-53
2022/09/12 04:30:35;;;;;;;19.58;12.30;;;12.30;99.90;;;;;;5010675;28;20137;-54
2022/09/12 04:33:01;;;;;;;19.02;12.52;;;12.30;99.90;;;;;;5010816;28;20652;-53
2022/09/12 04:35:26;;;;;;;21.25;13.75;;;12.30;99.90;;;;;;5010514;28;20508;-54
2022/09/12 04:37:52;;;;;;;19.60;13.23;;;12.30;99.90;;;;;;5010399;28;20030;-53
2022/09/12 04:40:18;;;;;;;16.98;12.07;;;12.30;99.90;;;;;;5010248;28;20038;-53
2022/09/12 04:42:44;;;;;;;22.73;12.52;;;12.20;99.90;;;;;;5010331;28;20072;-53
2022/09/12 04:45:10;;;;;;;16.60;12.13;;;12.20;99.90;;;;;;5009851;28;20038;-54
2022/09/12 04:47:36;;;;;;;17.77;11.88;;;12.20;99.90;;;;;;5010443;28;20022;-54
2022/09/12 04:50:01;;;;;;;18.02;12.32;;;12.20;99.90;;;;;;5010278;28;20524;-53
2022/09/12 04:52:27;;;;;;;18.45;12.27;;;12.20;99.90;;;;;;5010131;28;20029;-54
2022/09/12 04:54:53;;;;;;;16.75;12.07;;;12.20;99.90;;;;;;5008547;28;20037;-53
2022/09/12 04:57:18;;;;;;;18.17;11.13;;;12.20;99.90;;;;;;5010083;28;20030;-53
2022/09/12 04:59:44;;;;;;;16.80;11.35;;;12.20;99.90;;;;;;5027748;28;20504;-54
2022/09/12 05:02:10;;;;;;;15.15;10.70;;;12.20;99.90;;;;;;5038110;28;20044;-54
2022/09/12 05:04:35;;;;;;;17.33;11.20;;;12.20;99.90;;;;;;5039927;28;20052;-54
2022/09/12 05:07:01;;;;;;;14.77;10.32;;;12.20;99.90;;;;;;5045446;28;20120;-53
2022/09/12 05:09:28;;;;;;;18.70;10.68;;;12.20;99.90;;;;;;5049338;28;20416;-54
2022/09/12 05:11:53;;;;;;;16.40;11.18;;;12.10;99.90;;;;;;5023307;28;20088;-54
2022/09/12 05:14:19;;;;;;;17.50;10.70;;;12.10;99.90;;;;;;5009987;28;20026;-54
2022/09/12 05:16:45;;;;;;;19.50;11.98;;;12.10;99.90;;;;;;5010008;28;20041;-54
2022/09/12 05:19:11;;;;;;;15.95;10.80;;;12.20;99.90;;;;;;5009834;28;20029;-54
2022/09/12 05:21:37;;;;;;;16.20;10.55;;;12.20;99.90;;;;;;5009986;28;20148;-53
2022/09/12 05:24:05;;;;;;;17.05;10.23;;;12.20;99.90;;;;;;5009976;28;20073;-53
2022/09/12 05:26:31;;;;;;;17.38;10.77;;;12.20;99.90;;;;;;5009714;28;20030;-53
2022/09/12 05:28:56;;;;;;;17.60;9.65;;;12.20;99.90;;;;;;5023854;28;20028;-54
2022/09/12 05:31:26;;;;;;;19.55;10.63;;;12.30;99.90;;;;;;5044189;28;20021;-53
2022/09/12 05:33:54;;;;;;;13.50;9.65;;;12.30;99.90;;;;;;5015620;28;20026;-53
2022/09/12 05:36:26;;;;;;;12.73;9.25;;;12.30;99.90;;;;;;5023308;28;20064;-54
2022/09/12 05:38:52;;;;;;;16.67;9.45;;;12.40;99.90;;;;;;5022372;28;20140;-54
2022/09/12 05:41:26;;;;;;;13.55;9.27;;;12.50;99.90;;;;;;5023472;28;20100;-53
2022/09/12 05:43:57;;;;;;;13.48;9.27;;;12.50;99.90;;;;;;5022008;28;20079;-53
2022/09/12 05:46:25;;;;;;;15.50;10.07;;;12.50;99.90;;;;;;5022539;28;20052;-53
2022/09/12 05:48:53;;;;;;;16.40;10.25;;;12.60;99.90;;;;;;5020666;28;20022;-54
2022/09/12 05:51:25;;;;;;;14.38;10.45;;;12.60;99.90;;;;;;5023704;28;20037;-54
2022/09/12 05:53:54;;;;;;;17.42;11.55;;;12.60;99.90;;;;;;5022079;28;20033;-54
2022/09/12 05:56:22;;;;;;;13.40;10.57;;;12.60;99.90;;;;;;5021880;28;20014;-53
2022/09/12 05:58:54;;;;;;;15.63;8.80;;;12.70;99.90;;;;;;5022354;28;20024;-54
2022/09/12 06:01:21;;;;;;;13.40;9.77;;;12.60;99.90;;;;;;5047295;28;20083;-53
2022/09/12 06:03:49;;;;;;;13.98;8.35;;;12.70;99.90;;;;;;5049203;28;20071;-54
2022/09/12 06:06:17;;;;;;;12.50;7.30;;;12.70;99.90;;;;;;5041096;28;20032;-53
2022/09/12 06:08:47;;;;;;;12.35;7.32;;;12.80;99.90;;;;;;5041071;28;20021;-54
2022/09/12 06:11:16;;;;;;;14.38;7.80;;;12.80;99.90;;;;;;5037857;28;20084;-54
2022/09/12 06:13:43;;;;;;;12.50;7.22;;;12.80;99.90;;;;;;5041037;28;20032;-54
2022/09/12 06:16:17;;;;;;;13.00;8.40;;;12.90;99.90;;;;;;5042600;28;20139;-53
2022/09/12 06:18:52;;;;;;;17.65;7.97;;;12.80;99.90;;;;;;5042111;28;20021;-53
2022/09/12 06:21:19;;;;;;;12.10;8.10;;;12.90;99.90;;;;;;5040650;28;20044;-53
2022/09/12 06:23:45;;;;;;;9.75;7.20;;;13.00;99.90;;;;;;5034986;28;20029;-53
2022/09/12 06:26:12;;;;;;;11.10;6.70;;;13.00;99.90;;;;;;5043468;28;20086;-53
2022/09/12 06:28:41;;;;;;;14.25;8.20;;;13.10;99.90;;;;;;5041007;28;20457;-54
2022/09/12 06:31:10;;;;;;;10.88;6.78;;;13.20;99.90;;;;;;5043441;28;20071;-54
2022/09/12 06:33:41;;;;;;;11.98;6.72;;;13.20;99.90;;;;;;5035208;28;20031;-54
2022/09/12 06:36:15;;;;;;;11.88;7.00;;;13.20;99.90;;;;;;5043503;28;20028;-53
2022/09/12 06:38:41;;;;;;;15.65;9.85;;;13.10;99.90;;;;;;5038750;28;20029;-54
2022/09/12 06:41:11;;;;;;;18.65;11.05;;;13.10;99.90;;;;;;5038512;28;20037;-54
2022/09/12 06:43:37;;;;;;;31.67;15.18;;;13.20;99.90;;;;;;5042798;28;20021;-54
2022/09/12 06:46:03;;;;;;;12.05;7.68;;;13.20;99.90;;;;;;5050853;28;20090;-53
2022/09/12 06:48:29;;;;;;;11.93;7.57;;;13.30;99.90;;;;;;5041720;28;20036;-53
2022/09/12 06:51:00;;;;;;;8.80;5.82;;;13.20;99.90;;;;;;5040279;28;20025;-54
2022/09/12 06:53:28;;;;;;;9.50;5.53;;;13.30;99.90;;;;;;5038835;28;20078;-54
2022/09/12 06:56:05;;;;;;;11.35;5.65;;;13.30;99.90;;;;;;5040277;28;20029;-54
2022/09/12 06:58:32;;;;;;;9.52;5.53;;;13.20;99.90;;;;;;5042093;28;20040;-54
2022/09/12 07:01:10;;;;;;;11.57;5.97;;;13.30;99.90;;;;;;5041715;28;20033;-54
2022/09/12 07:03:36;;;;;;;10.75;4.88;;;13.40;99.90;;;;;;5038483;28;20053;-53
2022/09/12 07:06:08;;;;;;;12.70;5.82;;;13.50;99.90;;;;;;5043404;28;20119;-54
2022/09/12 07:08:35;;;;;;;9.60;4.93;;;13.50;99.90;;;;;;5040964;28;20024;-54
2022/09/12 07:11:22;;;;;;;10.27;5.10;;;13.60;99.90;;;;;;5032457;28;20045;-53
2022/09/12 07:13:50;;;;;;;8.38;5.00;;;13.60;99.90;;;;;;5034966;28;20092;-53
2022/09/12 07:16:17;;;;;;;8.90;4.10;;;13.60;99.90;;;;;;5037075;28;20040;-53
2022/09/12 07:18:45;;;;;;;7.40;4.07;;;13.60;99.90;;;;;;5045918;28;20384;-53
2022/09/12 07:21:12;;;;;;;12.90;5.35;;;13.50;99.90;;;;;;5041373;28;20098;-54
2022/09/12 07:23:39;;;;;;;12.65;4.95;;;13.50;99.90;;;;;;5030899;28;20025;-53
2022/09/12 07:26:06;;;;;;;10.18;4.53;;;13.50;99.90;;;;;;5034051;28;20022;-54
2022/09/12 07:28:33;;;;;;;;;;;13.60;99.90;;;;;;5031648;28;20032;-53
2022/09/12 07:31:09;;;;;;;10.88;4.78;;;13.70;99.90;;;;;;5038337;28;20054;-53
2022/09/12 07:33:35;;;;;;;7.93;4.22;;;13.80;99.90;;;;;;5033021;28;20044;-54
2022/09/12 07:36:07;;;;;;;11.37;4.13;;;13.90;99.90;;;;;;5030788;28;20033;-53
2022/09/12 07:38:33;;;;;;;5.35;3.28;;;13.90;99.90;;;;;;5037229;28;20651;-53
2022/09/12 07:41:00;;;;;;;7.65;3.85;;;13.80;99.90;;;;;;5008000;28;20050;-53
2022/09/12 07:43:26;;;;;;;5.88;3.05;;;13.80;99.90;;;;;;5023610;28;20029;-53
2022/09/12 07:45:55;;;;;;;8.57;3.65;;;13.80;99.90;;;;;;5030719;28;20041;-54
2022/09/12 07:48:22;;;;;;;8.57;3.15;;;13.90;99.90;;;;;;5027510;28;20388;-54
2022/09/12 07:50:58;;;;;;;6.28;3.05;;;14.00;99.90;;;;;;5041564;28;20037;-53
2022/09/12 07:53:26;;;;;;;5.68;2.70;;;14.10;99.90;;;;;;5020043;28;20030;-53
2022/09/12 07:55:53;;;;;;;6.82;2.90;;;14.20;99.90;;;;;;5010289;28;20077;-53
2022/09/12 07:58:19;;;;;;;8.88;2.95;;;14.40;99.90;;;;;;5019069;28;20048;-54
2022/09/12 08:00:45;;;;;;;5.55;2.58;;;14.60;99.90;;;;;;5029747;28;20037;-54
2022/09/12 08:03:10;;;;;;;10.52;3.28;;;14.60;99.90;;;;;;5010459;28;20037;-54
2022/09/12 08:05:36;;;;;;;5.20;2.40;;;14.60;99.90;;;;;;5028200;28;20033;-53
2022/09/12 08:08:02;;;;;;;8.00;3.05;;;14.50;99.90;;;;;;5029644;28;20045;-53
2022/09/12 08:10:28;;;;;;;5.63;2.33;;;14.60;99.90;;;;;;5030028;28;20048;-53
2022/09/12 08:12:53;;;;;;;16.17;2.90;;;14.60;99.90;;;;;;5027306;28;20547;-53
2022/09/12 08:15:19;;;;;;;8.27;3.75;;;14.70;99.90;;;;;;5027901;28;20041;-54
2022/09/12 08:17:45;;;;;;;4.68;1.90;;;14.70;99.90;;;;;;5028258;28;20384;-53
2022/09/12 08:20:11;;;;;;;6.10;2.10;;;14.70;99.90;;;;;;5028406;28;20154;-54
2022/09/12 08:22:38;;;;;;;3.53;2.17;;;14.70;99.90;;;;;;5028797;28;20057;-54
2022/09/12 08:25:05;;;;;;;;;;;14.80;99.90;;;;;;5028879;28;20489;-53
2022/09/12 08:27:31;;;;;;;9.18;2.95;;;15.10;99.90;;;;;;5028929;28;19909;-53
2022/09/12 08:29:56;;;;;;;9.73;2.58;;;15.30;99.90;;;;;;5011493;28;20033;-54
2022/09/12 08:32:22;;;;;;;4.05;2.00;;;15.60;99.90;;;;;;5029319;28;20132;-53
2022/09/12 08:34:48;;;;;;;5.35;2.63;;;16.00;99.90;;;;;;5028995;28;20041;-54
2022/09/12 08:37:14;;;;;;;4.93;2.80;;;16.20;99.90;;;;;;5029348;28;20487;-53
2022/09/12 08:39:40;;;;;;;5.80;2.33;;;16.30;99.90;;;;;;5028740;28;20049;-53
2022/09/12 08:42:09;;;;;;;6.30;2.50;;;16.40;99.90;;;;;;5029164;28;20502;-51
2022/09/12 08:44:56;;;;;;;4.53;2.55;;;16.20;99.90;;;;;;5029102;28;20028;-53
2022/09/12 08:47:25;;;;;;;6.07;2.28;;;16.20;99.90;;;;;;5029200;28;20112;-54
2022/09/12 08:56:36;;;;;;;7.95;2.30;;;17.30;99.90;;;;;;5027686;28;20040;-52
2022/09/12 08:59:02;;;;;;;7.90;2.60;;;17.60;99.90;;;;;;5028407;28;20029;-52
2022/09/12 09:01:40;;;;;;;7.93;1.95;;;18.10;99.90;;;;;;5028855;28;20041;-52
2022/09/12 09:04:20;;;;;;;8.85;2.38;;;18.50;99.90;;;;;;5029090;28;20104;-53
2022/09/12 09:07:13;;;;;;;12.32;2.60;;;19.10;99.90;;;;;;5029737;28;20079;-53
2022/09/12 09:10:15;;;;;;;3.38;1.83;;;19.40;99.90;;;;;;5029566;28;20121;-53
2022/09/12 09:12:59;;;;;;;5.38;1.73;;;20.50;99.90;;;;;;5029380;28;20092;-53
2022/09/12 09:15:54;;;;;;;3.10;1.00;;;20.70;99.60;;;;;;5029516;28;20126;-53
2022/09/12 09:18:27;;;;;;;5.57;2.03;;;21.20;95.30;;;;;;5029184;28;20037;-53
2022/09/12 09:21:05;;;;;;;6.05;1.83;;;21.20;94.20;;;;;;5029212;28;20042;-53
2022/09/12 09:23:41;;;;;;;6.95;1.73;;;20.70;93.40;;;;;;5029817;28;20439;-53
2022/09/12 09:26:16;;;;;;;3.83;1.65;;;20.40;95.30;;;;;;5029685;28;20052;-54
2022/09/12 09:29:13;;;;;;;4.55;1.52;;;21.00;94.40;;;;;;5029090;28;20022;-53
2022/09/12 09:31:41;;;;;;;12.30;2.80;;;20.80;93.90;;;;;;5016141;28;20120;-53
2022/09/12 09:34:18;;;;;;;5.07;2.05;;;19.90;95.20;;;;;;5029566;28;20033;-53
2022/09/12 09:37:07;;;;;;;6.20;1.63;;;20.70;95.10;;;;;;5029191;28;20021;-53
2022/09/12 09:39:50;;;;;;;6.13;1.52;;;20.60;94.60;;;;;;5029142;28;20034;-53
2022/09/12 09:42:24;;;;;;;5.63;1.30;;;20.80;93.60;;;;;;5029011;28;20033;-54
2022/09/12 09:44:54;;;;;;;5.88;1.58;;;20.80;92.00;;;;;;5028467;28;20068;-54
2022/09/12 09:47:20;;;;;;;2.90;1.63;;;20.20;91.50;;;;;;5029127;28;20022;-53
2022/09/12 09:49:46;;;;;;;5.88;1.83;;;19.80;91.70;;;;;;5025053;28;20032;-53
2022/09/12 09:52:15;;;;;;;6.57;1.80;;;19.50;93.00;;;;;;5012224;28;20057;-53
2022/09/12 09:54:53;;;;;;;2.42;1.38;;;19.80;96.70;;;;;;5009432;28;20033;-53
2022/09/12 09:57:38;;;;;;;4.88;1.50;;;20.40;93.40;;;;;;5009336;28;20109;-54
2022/09/12 10:00:34;;;;;;;4.05;1.50;;;20.60;92.70;;;;;;5022528;28;20635;-53
2022/09/12 10:03:13;;;;;;;3.85;1.65;;;20.60;91.40;;;;;;5028623;28;20045;-54
2022/09/12 10:05:49;;;;;;;4.70;2.72;;;20.90;92.50;;;;;;5029128;28;20249;-54
2022/09/12 10:08:26;;;;;;;6.95;1.92;;;20.70;90.50;;;;;;5034114;28;20029;-53
2022/09/12 10:11:15;;;;;;;11.93;1.90;;;20.90;91.00;;;;;;5048336;28;20040;-53
2022/09/12 10:13:52;;;;;;;5.35;1.98;;;21.00;89.10;;;;;;5046895;28;20422;-53
2022/09/12 10:16:27;;;;;;;5.63;1.77;;;21.20;92.30;;;;;;5021326;28;20033;-53
2022/09/12 10:18:54;;;;;;;4.00;1.50;;;20.40;91.80;;;;;;5034789;28;20152;-53
2022/09/12 10:21:29;;;;;;;4.90;1.17;;;20.80;91.00;;;;;;5033833;28;20095;-53
2022/09/12 10:24:23;;;;;;;3.53;1.15;;;20.60;90.50;;;;;;5036888;28;20079;-53
2022/09/12 10:26:55;;;;;;;5.13;1.52;;;20.40;91.30;;;;;;5016779;28;20037;-53
2022/09/12 10:29:25;;;;;;;5.05;1.52;;;20.40;90.80;;;;;;5028212;28;20033;-53
2022/09/12 10:31:55;;;;;;;3.17;1.10;;;20.90;90.60;;;;;;5025715;28;20548;-52
2022/09/12 10:34:37;;;;;;;5.80;1.95;;;21.60;90.80;;;;;;5029960;28;20034;-53
2022/09/12 10:37:08;;;;;;;4.22;1.70;;;22.40;87.70;;;;;;5021654;28;20033;-53
2022/09/12 10:39:37;;;;;;;4.32;1.80;;;22.00;87.10;;;;;;5021790;28;20049;-53
2022/09/12 10:42:04;;;;;;;8.20;1.60;;;21.90;89.60;;;;;;5020853;28;20028;-53
2022/09/12 10:44:32;;;;;;;3.30;1.10;;;22.20;90.40;;;;;;5007337;28;20025;-53
2022/09/12 10:47:07;;;;;;;4.20;1.60;;;22.10;86.30;;;;;;5032279;28;20438;-53
2022/09/12 10:49:39;;;;;;;4.95;1.75;;;22.20;89.70;;;;;;5032521;28;20017;-53
2022/09/12 10:52:22;;;;;;;4.20;1.50;;;22.30;88.60;;;;;;5032659;28;20029;-54
2022/09/12 10:54:53;;;;;;;3.95;1.88;;;22.20;86.80;;;;;;5011169;28;20057;-54
2022/09/12 10:57:21;;;;;;;5.20;1.88;;;22.00;91.10;;;;;;5019546;28;20030;-53
2022/09/12 11:00:09;;;;;;;7.05;1.80;;;21.30;86.60;;;;;;5021329;28;20381;-54
2022/09/12 11:02:57;;;;;;;3.53;1.40;;;21.20;91.10;;;;;;5021794;28;20083;-54
2022/09/12 11:05:55;;;;;;;4.35;1.85;;;21.20;89.10;;;;;;5019398;28;20083;-54
2022/09/12 11:08:44;;;;;;;3.65;1.50;;;21.40;91.70;;;;;;5019296;28;20691;-53
2022/09/12 11:11:16;;;;;;;2.70;1.50;;;21.40;90.00;;;;;;5020895;28;20057;-54
2022/09/12 11:13:50;;;;;;;3.83;1.42;;;21.50;89.80;;;;;;5019695;28;20021;-53
2022/09/12 11:16:20;;;;;;;6.07;1.67;;;21.80;90.10;;;;;;5017891;28;20125;-54
2022/09/12 11:18:52;;;;;;;4.07;2.33;;;22.30;88.80;;;;;;5035039;28;20092;-54
2022/09/12 11:21:40;;;;;;;4.50;1.30;;;22.30;88.80;;;;;;5036037;28;20120;-54
2022/09/12 11:24:27;;;;;;;1.85;1.30;;;23.40;86.60;;;;;;5036231;28;20075;-54
2022/09/12 11:27:29;;;;;;;3.08;1.85;;;22.50;83.50;;;;;;5024312;28;20089;-53
2022/09/12 11:30:00;;;;;;;5.65;1.60;;;22.90;85.70;;;;;;5020180;28;21502;-54
2022/09/12 11:32:50;;;;;;;4.05;1.38;;;22.20;83.50;;;;;;5020129;28;20117;-54
2022/09/12 11:35:27;;;;;;;2.08;1.25;;;21.60;86.30;;;;;;5021103;28;20076;-53
2022/09/12 11:38:11;;;;;;;4.75;1.27;;;21.70;89.40;;;;;;5018304;28;20025;-53
2022/09/12 11:40:39;;;;;;;5.63;1.40;;;21.80;90.90;;;;;;5019216;28;20049;-53
2022/09/12 11:43:23;;;;;;;4.40;1.48;;;21.70;89.40;;;;;;5019699;28;20018;-53
2022/09/12 11:45:50;;;;;;;11.38;2.70;;;22.00;90.60;;;;;;5022144;28;20449;-53
2022/09/12 11:48:43;;;;;;;3.95;1.77;;;21.80;87.50;;;;;;5038139;28;20067;-53
2022/09/12 11:51:36;;;;;;;3.25;1.50;;;21.40;91.70;;;;;;5035597;28;20028;-53
2022/09/12 11:54:17;;;;;;;5.20;1.80;;;21.10;91.40;;;;;;5038841;28;20062;-53
2022/09/12 11:56:48;;;;;;;3.17;1.40;;;20.80;92.10;;;;;;5037013;28;20561;-53
2022/09/12 11:59:52;;;;;;;3.55;1.52;;;20.70;90.90;;;;;;5039694;28;20113;-53
2022/09/12 12:02:26;;;;;;;5.07;1.52;;;21.00;92.30;;;;;;5025893;28;20464;-53
2022/09/12 12:05:16;;;;;;;3.15;1.17;;;21.50;92.80;;;;;;5049764;28;20455;-53
2022/09/12 12:07:52;;;;;;;26.52;19.63;;;22.10;92.30;;;;;;5043867;28;20025;-54
2022/09/12 12:10:49;;;;;;;5.78;1.98;;;21.90;90.10;;;;;;5035431;28;20033;-53
2022/09/12 12:13:18;;;;;;;3.28;1.17;;;21.90;90.00;;;;;;5013779;28;20110;-53
2022/09/12 12:15:57;;;;;;;5.95;2.03;;;22.00;91.10;;;;;;5024590;28;20096;-53
2022/09/12 12:18:26;;;;;;;5.13;1.50;;;21.90;91.10;;;;;;5029405;28;20365;-53
2022/09/12 12:20:53;;;;;;;5.03;1.67;;;21.90;90.70;;;;;;5029491;28;20183;-53
2022/09/12 12:23:30;;;;;;;3.85;1.52;;;21.20;89.70;;;;;;5031691;28;20041;-52
2022/09/12 12:25:58;;;;;;;4.20;1.70;;;21.10;92.50;;;;;;5027797;28;20035;-52
2022/09/12 12:28:49;;;;;;;4.38;1.67;;;21.00;91.50;;;;;;5027242;28;20424;-53
2022/09/12 12:31:16;;;;;;;7.68;1.48;;;20.70;91.70;;;;;;5015066;28;20029;-53
2022/09/12 12:33:45;;;;;;;6.88;1.48;;;20.70;92.60;;;;;;5029209;28;20037;-53
2022/09/12 12:36:33;;;;;;;4.45;1.75;;;20.90;95.10;;;;;;5027968;28;20022;-53
2022/09/12 12:39:19;;;;;;;;;;;20.90;92.70;;;;;;5028477;28;20036;-53
2022/09/12 12:41:44;;;;;;;3.67;1.40;;;20.90;92.90;;;;;;5028269;28;19913;-53
2022/09/12 12:44:44;;;;;;;7.32;1.33;;;20.80;93.30;;;;;;5029845;28;20091;-52
2022/09/12 12:47:18;;;;;;;3.42;1.45;;;20.70;93.30;;;;;;5029624;28;20032;-51
2022/09/12 12:49:51;;;;;;;2.28;1.30;;;20.60;97.30;;;;;;5029639;28;20479;-53
2022/09/12 12:52:18;;;;;;;1.70;1.20;;;21.00;93.40;;;;;;5029932;28;20033;-52
2022/09/12 12:54:43;;;;;;;4.57;1.83;;;21.20;97.00;;;;;;5029893;28;20043;-53
2022/09/12 12:57:29;;;;;;;3.80;1.50;;;21.60;95.20;;;;;;5030072;28;20465;-53
2022/09/12 13:00:04;;;;;;;2.70;1.33;;;21.70;91.40;;;;;;5011813;28;20030;-52
2022/09/12 13:02:34;;;;;;;3.33;1.45;;;21.60;91.50;;;;;;5029904;28;20488;-52
2022/09/12 13:05:04;;;;;;;2.55;1.55;;;21.10;90.90;;;;;;5029411;28;20850;-52
2022/09/12 13:07:38;;;;;;;5.03;1.90;;;21.00;93.30;;;;;;5029768;28;20438;-52
2022/09/12 13:10:06;;;;;;;4.70;1.42;;;20.60;94.40;;;;;;5029591;28;20025;-52
2022/09/12 13:12:46;;;;;;;5.53;1.75;;;20.40;94.10;;;;;;5029678;28;20132;-52
2022/09/12 13:15:36;;;;;;;3.30;1.50;;;20.20;92.90;;;;;;5029812;28;20040;-52
2022/09/12 13:18:31;;;;;;;3.67;2.00;;;20.20;93.00;;;;;;5029606;28;20033;-53